createdAt,value
2019-01-25T00:00:45.950Z,-1.20
2019-01-25T00:03:13.925Z,-1.20
2019-01-25T00:05:41.949Z,-1.20
2019-01-25T00:08:11.913Z,-1.20
2019-01-25T00:10:39.977Z,-1.10
2019-01-25T00:13:07.883Z,-1.20
2019-01-25T00:15:35.873Z,-1.30
2019-01-25T00:18:04.524Z,-1.50
2019-01-25T00:20:32.942Z,-1.50
2019-01-25T00:23:02.246Z,-1.50
2019-01-25T00:25:30.310Z,-1.50
2019-01-25T00:27:58.224Z,-1.60
2019-01-25T00:30:26.153Z,-1.60
2019-01-25T00:32:54.121Z,-1.50
2019-01-25T00:35:22.083Z,-1.60
2019-01-25T00:37:50.015Z,-1.60
2019-01-25T00:40:18.341Z,-1.70
2019-01-25T00:42:46.388Z,-1.60
2019-01-25T00:45:14.418Z,-1.50
2019-01-25T00:47:42.403Z,-1.40
2019-01-25T00:50:13.094Z,-1.50
2019-01-25T00:52:41.121Z,-1.40
2019-01-25T00:55:09.562Z,-1.40
2019-01-25T00:57:37.547Z,-1.40
2019-01-25T01:00:07.963Z,-1.50
2019-01-25T01:02:35.945Z,-1.60
2019-01-25T01:05:04.529Z,-1.60
2019-01-25T01:07:32.460Z,-1.70
2019-01-25T01:10:00.381Z,-1.60
2019-01-25T01:12:28.402Z,-1.70
2019-01-25T01:14:56.447Z,-1.70
2019-01-25T01:17:24.408Z,-1.60
2019-01-25T01:19:52.354Z,-1.40
2019-01-25T01:22:20.352Z,-1.60
2019-01-25T01:24:48.346Z,-1.60
2019-01-25T01:27:16.456Z,-1.70
2019-01-25T01:29:44.378Z,-1.60
2019-01-25T01:32:12.357Z,-1.60
2019-01-25T01:34:40.319Z,-1.50
2019-01-25T01:37:08.371Z,-1.40
2019-01-25T01:39:36.347Z,-1.50
2019-01-25T01:42:04.323Z,-1.50
2019-01-25T01:44:32.313Z,-1.50
2019-01-25T01:47:00.363Z,-1.60
2019-01-25T01:49:28.295Z,-1.60
2019-01-25T01:51:56.210Z,-1.60
2019-01-25T01:54:24.125Z,-1.60
2019-01-25T01:56:52.107Z,-1.60
2019-01-25T01:59:20.049Z,-1.60
2019-01-25T02:01:48.080Z,-1.60
2019-01-25T02:04:16.084Z,-1.60
2019-01-25T02:06:44.074Z,-1.60
2019-01-25T02:09:12.080Z,-1.60
2019-01-25T02:11:40.395Z,-1.50
2019-01-25T02:14:08.352Z,-1.40
2019-01-25T02:16:36.244Z,-1.40
2019-01-25T02:19:04.745Z,-1.40
2019-01-25T02:21:32.716Z,-1.50
2019-01-25T02:24:00.823Z,-1.50
2019-01-25T02:26:28.815Z,-1.50
2019-01-25T02:28:56.699Z,-1.50
2019-01-25T02:31:24.568Z,-1.60
2019-01-25T02:33:52.523Z,-1.60
2019-01-25T02:36:20.431Z,-1.70
2019-01-25T02:38:48.303Z,-1.70
2019-01-25T02:41:16.212Z,-1.60
2019-01-25T02:43:44.164Z,-1.50
2019-01-25T02:46:12.120Z,-1.40
2019-01-25T02:48:40.051Z,-1.50
2019-01-25T02:51:08.089Z,-1.60
2019-01-25T02:53:36.002Z,-1.60
2019-01-25T02:56:05.561Z,-1.60
2019-01-25T02:58:33.548Z,-1.60
2019-01-25T03:01:01.534Z,-1.70
2019-01-25T03:03:29.492Z,-1.70
2019-01-25T03:05:57.407Z,-1.80
2019-01-25T03:08:25.346Z,-1.70
2019-01-25T03:10:53.347Z,-1.70
2019-01-25T03:13:21.214Z,-1.70
2019-01-25T03:15:49.107Z,-1.70
2019-01-25T03:18:17.001Z,-1.80
2019-01-25T03:20:45.076Z,-1.70
2019-01-25T03:23:13.063Z,-1.80
2019-01-25T03:25:41.041Z,-1.80
2019-01-25T03:28:09.012Z,-1.70
2019-01-25T03:30:36.903Z,-1.70
2019-01-25T03:33:04.968Z,-1.70
2019-01-25T03:35:32.880Z,-1.70
2019-01-25T03:38:00.869Z,-1.70
2019-01-25T03:40:28.780Z,-1.70
2019-01-25T03:42:56.844Z,-1.70
2019-01-25T03:45:25.121Z,-1.70
2019-01-25T03:47:53.297Z,-1.70
2019-01-25T03:50:22.489Z,-1.60
2019-01-25T03:52:50.477Z,-1.70
2019-01-25T03:55:18.500Z,-1.70
2019-01-25T03:57:46.443Z,-1.70
2019-01-25T04:00:15.820Z,-1.80
2019-01-25T04:02:43.860Z,-1.80
2019-01-25T04:05:12.662Z,-1.80
2019-01-25T04:07:40.632Z,-1.80
2019-01-25T04:10:09.509Z,-1.70
2019-01-25T04:12:37.499Z,-1.60
2019-01-25T04:15:06.596Z,-1.70
2019-01-25T04:17:34.532Z,-1.60
2019-01-25T04:20:02.579Z,-1.60
2019-01-25T04:22:30.507Z,-1.50
2019-01-25T04:24:58.407Z,-1.50
2019-01-25T04:27:26.409Z,-1.40
2019-01-25T04:29:54.374Z,-1.50
2019-01-25T04:32:22.298Z,-1.60
2019-01-25T04:34:50.229Z,-1.60
2019-01-25T04:37:18.178Z,-1.50
2019-01-25T04:39:46.058Z,-1.40
2019-01-25T04:42:14.023Z,-1.40
2019-01-25T04:44:41.996Z,-1.50
2019-01-25T04:47:10.067Z,-1.60
2019-01-25T04:49:38.042Z,-1.60
2019-01-25T04:52:12.081Z,-1.60
2019-01-25T04:54:39.960Z,-1.60
2019-01-25T04:57:07.966Z,-1.60
2019-01-25T04:59:35.954Z,-1.70
2019-01-25T05:02:04.090Z,-1.70
2019-01-25T05:04:35.849Z,-1.80
2019-01-25T05:07:04.622Z,-1.90
2019-01-25T05:09:36.695Z,-2.00
2019-01-25T05:12:04.766Z,-2.10
2019-01-25T05:14:34.185Z,-2.10
2019-01-25T05:17:02.133Z,-2.10
2019-01-25T05:19:33.323Z,-1.90
2019-01-25T05:22:01.229Z,-1.90
2019-01-25T05:24:29.133Z,-1.90
2019-01-25T05:26:58.006Z,-1.80
2019-01-25T05:29:32.643Z,-1.70
2019-01-25T05:32:03.743Z,-1.70
2019-01-25T05:34:31.695Z,-1.60
2019-01-25T05:36:59.666Z,-1.50
2019-01-25T05:39:27.586Z,-1.50
2019-01-25T05:41:55.534Z,-1.50
2019-01-25T05:44:23.559Z,-1.40
2019-01-25T05:46:51.567Z,-1.40
2019-01-25T05:49:23.347Z,-1.40
2019-01-25T05:51:51.257Z,-1.40
2019-01-25T05:54:19.228Z,-1.30
2019-01-25T05:56:47.157Z,-1.20
2019-01-25T05:59:16.728Z,-1.30
2019-01-25T06:01:45.038Z,-1.40
2019-01-25T06:04:12.921Z,-1.60
2019-01-25T06:06:40.926Z,-1.60
2019-01-25T06:09:08.960Z,-1.70
2019-01-25T06:11:38.820Z,-1.70
2019-01-25T06:14:07.067Z,-1.80
2019-01-25T06:16:35.106Z,-1.80
2019-01-25T06:19:03.078Z,-1.70
2019-01-25T06:21:30.964Z,-1.50
2019-01-25T06:23:58.876Z,-1.50
2019-01-25T06:26:26.936Z,-1.40
2019-01-25T06:28:54.896Z,-1.40
2019-01-25T06:31:22.789Z,-1.30
2019-01-25T06:33:50.775Z,-1.20
2019-01-25T06:36:18.660Z,-1.20
2019-01-25T06:38:46.604Z,-1.20
2019-01-25T06:41:14.943Z,-1.10
2019-01-25T06:43:43.048Z,-1.10
2019-01-25T06:46:14.064Z,-1.30
2019-01-25T06:48:42.069Z,-1.40
2019-01-25T06:51:10.635Z,-1.30
2019-01-25T06:53:38.678Z,-1.20
2019-01-25T06:56:06.816Z,-1.20
2019-01-25T06:58:57.011Z,-1.20
2019-01-25T07:01:59.472Z,-1.20
2019-01-25T07:04:27.508Z,-1.30
2019-01-25T07:06:55.601Z,-1.30
2019-01-25T07:09:23.565Z,-1.30
2019-01-25T07:11:52.020Z,-1.40
2019-01-25T07:14:22.559Z,-1.40
2019-01-25T07:16:50.479Z,-1.30
2019-01-25T07:19:18.601Z,-1.30
2019-01-25T07:21:46.489Z,-1.40
2019-01-25T07:24:14.486Z,-1.40
2019-01-25T07:26:43.682Z,-1.50
2019-01-25T07:29:11.588Z,-1.60
2019-01-25T07:31:39.560Z,-1.50
2019-01-25T07:34:07.914Z,-1.40
2019-01-25T07:36:35.883Z,-1.50
2019-01-25T07:39:08.728Z,-1.50
2019-01-25T07:41:36.660Z,-1.40
2019-01-25T07:44:04.718Z,-1.40
2019-01-25T07:46:32.865Z,-1.30
2019-01-25T07:49:00.861Z,-1.30
2019-01-25T07:51:29.011Z,-1.50
2019-01-25T07:53:56.982Z,-1.50
2019-01-25T07:56:28.449Z,-1.50
2019-01-25T07:58:56.428Z,-1.50
2019-01-25T08:01:24.387Z,-1.50
2019-01-25T08:03:52.634Z,-1.40
2019-01-25T08:06:20.551Z,-1.30
2019-01-25T08:08:48.586Z,-1.20
2019-01-25T08:11:16.686Z,-1.20
2019-01-25T08:13:45.111Z,-1.10
2019-01-25T08:16:13.349Z,-1.20
2019-01-25T08:18:41.320Z,-1.20
2019-01-25T08:21:11.711Z,-1.30
2019-01-25T08:23:39.721Z,-1.30
2019-01-25T08:26:07.787Z,-1.40
2019-01-25T08:28:35.884Z,-1.30
2019-01-25T08:31:04.513Z,-1.20
2019-01-25T08:33:32.571Z,-1.30
2019-01-25T08:36:00.593Z,-1.40
2019-01-25T08:38:28.821Z,-1.40
2019-01-25T08:40:56.947Z,-1.30
2019-01-25T08:43:24.948Z,-1.20
2019-01-25T08:45:52.863Z,-1.30
2019-01-25T08:48:20.900Z,-1.40
2019-01-25T08:50:48.923Z,-1.20
2019-01-25T08:53:17.265Z,-1.10
2019-01-25T08:55:45.522Z,-1.10
2019-01-25T08:58:13.648Z,-1.30
2019-01-25T09:00:41.571Z,-1.20
2019-01-25T09:03:09.627Z,-1.10
2019-01-25T09:05:37.595Z,-1.00
2019-01-25T09:08:05.548Z,-0.90
2019-01-25T09:10:33.591Z,-0.80
2019-01-25T09:13:01.647Z,-0.80
2019-01-25T09:15:29.556Z,-0.80
2019-01-25T09:17:57.475Z,-1.00
2019-01-25T09:20:25.443Z,-1.00
2019-01-25T09:22:53.452Z,-0.90
2019-01-25T09:25:21.482Z,-0.90
2019-01-25T09:27:49.579Z,-0.80
2019-01-25T09:30:18.676Z,-0.70
2019-01-25T09:32:46.663Z,-0.60
2019-01-25T09:35:14.987Z,-0.60
2019-01-25T09:37:42.883Z,-0.50
2019-01-25T09:40:12.742Z,-0.40
2019-01-25T09:42:40.713Z,-0.30
2019-01-25T09:45:09.389Z,-0.30
2019-01-25T09:47:37.301Z,-0.30
2019-01-25T09:50:05.998Z,-0.30
2019-01-25T09:52:33.954Z,-0.20
2019-01-25T09:55:02.077Z,-0.20
2019-01-25T09:57:30.138Z,-0.40
2019-01-25T09:59:58.123Z,-0.60
2019-01-25T10:02:26.121Z,-0.60
2019-01-25T10:04:54.120Z,-0.50
2019-01-25T10:07:22.562Z,-0.40
2019-01-25T10:09:50.521Z,-0.40
2019-01-25T10:12:18.387Z,-0.40
2019-01-25T10:14:46.295Z,-0.40
2019-01-25T10:17:14.198Z,-0.40
2019-01-25T10:19:42.225Z,-0.40
2019-01-25T10:22:10.139Z,-0.30
2019-01-25T10:24:38.128Z,-0.40
2019-01-25T10:27:06.135Z,-0.30
2019-01-25T10:29:34.147Z,-0.30
2019-01-25T10:32:02.182Z,-0.30
2019-01-25T10:34:30.170Z,-0.30
2019-01-25T10:36:58.104Z,-0.40
2019-01-25T10:39:26.135Z,-0.40
2019-01-25T10:41:54.240Z,-0.30
2019-01-25T10:44:22.216Z,0.00
2019-01-25T10:46:50.244Z,0.20
2019-01-25T10:49:18.363Z,1.00
2019-01-25T10:51:46.330Z,1.80
2019-01-25T10:54:14.340Z,2.60
2019-01-25T10:56:42.257Z,2.80
2019-01-25T10:59:10.228Z,3.30
2019-01-25T11:01:38.359Z,3.40
2019-01-25T11:04:11.354Z,3.10
2019-01-25T11:06:36.091Z,3.30
2019-01-25T11:09:05.988Z,3.30
2019-01-25T11:11:34.018Z,4.00
2019-01-25T11:14:01.987Z,3.90
2019-01-25T11:16:29.905Z,3.50
2019-01-25T11:18:57.836Z,3.10
2019-01-25T11:21:25.768Z,2.60
2019-01-25T11:23:53.723Z,2.10
2019-01-25T11:26:21.819Z,1.70
2019-01-25T11:28:49.752Z,1.50
2019-01-25T11:31:17.969Z,1.20
2019-01-25T11:33:45.874Z,0.80
2019-01-25T11:36:13.919Z,0.80
2019-01-25T11:38:41.965Z,0.70
2019-01-25T11:41:09.946Z,0.60
2019-01-25T11:43:37.984Z,0.20
2019-01-25T11:46:05.953Z,0.10
2019-01-25T11:48:33.926Z,-0.10
2019-01-25T11:51:02.000Z,-0.20
2019-01-25T11:53:30.055Z,-0.40
2019-01-25T11:55:58.074Z,-0.40
2019-01-25T11:58:25.980Z,-0.40
2019-01-25T12:00:53.883Z,-0.40
2019-01-25T12:03:21.865Z,-0.50
2019-01-25T12:05:49.996Z,-0.50
2019-01-25T12:08:18.045Z,-0.70
2019-01-25T12:10:45.948Z,-0.60
2019-01-25T12:13:16.268Z,-0.80
2019-01-25T12:15:43.569Z,-0.80
2019-01-25T12:18:11.580Z,-0.90
2019-01-25T12:20:39.603Z,-0.90
2019-01-25T12:23:07.538Z,-0.90
2019-01-25T12:25:35.583Z,-0.90
2019-01-25T12:28:05.328Z,-1.10
2019-01-25T12:30:38.228Z,-1.10
2019-01-25T12:33:06.984Z,-1.10
2019-01-25T12:35:35.835Z,-1.10
2019-01-25T12:38:04.184Z,-1.00
2019-01-25T12:40:32.156Z,-1.10
2019-01-25T12:43:00.212Z,-1.10
2019-01-25T12:45:28.239Z,-1.10
2019-01-25T12:47:56.234Z,-1.00
2019-01-25T12:50:31.544Z,-0.90
2019-01-25T12:53:00.226Z,-0.90
2019-01-25T12:55:32.584Z,-0.70
2019-01-25T12:57:57.864Z,-0.70
2019-01-25T13:00:25.935Z,-0.70
2019-01-25T13:02:54.131Z,-0.50
2019-01-25T13:05:22.733Z,-0.50
2019-01-25T13:07:50.682Z,-0.60
2019-01-25T13:10:19.040Z,-0.60
2019-01-25T13:12:47.053Z,-0.60
2019-01-25T13:15:15.148Z,-0.60
2019-01-25T13:17:43.123Z,-0.50
2019-01-25T13:20:12.664Z,-0.40
2019-01-25T13:22:40.607Z,-0.40
2019-01-25T13:25:08.682Z,-0.30
2019-01-25T13:27:36.843Z,-0.40
2019-01-25T13:30:06.166Z,-0.60
2019-01-25T13:32:34.613Z,-0.50
2019-01-25T13:35:02.689Z,-0.50
2019-01-25T13:37:31.585Z,-0.50
2019-01-25T13:39:59.679Z,-0.50
2019-01-25T13:42:27.651Z,-0.70
2019-01-25T13:44:55.570Z,-0.70
2019-01-25T13:47:23.593Z,-0.80
2019-01-25T13:49:51.517Z,-0.80
2019-01-25T13:52:19.480Z,-0.90
2019-01-25T13:54:47.458Z,-0.90
2019-01-25T13:57:16.012Z,-1.10
2019-01-25T13:59:44.186Z,-1.00
2019-01-25T14:02:12.068Z,-1.00
2019-01-25T14:04:40.075Z,-1.00
2019-01-25T14:07:08.129Z,-1.00
2019-01-25T14:09:36.100Z,-1.00
2019-01-25T14:12:04.091Z,-1.00
2019-01-25T14:14:32.085Z,-1.00
2019-01-25T14:17:00.023Z,-1.00
2019-01-25T14:19:27.974Z,-1.10
2019-01-25T14:21:56.005Z,-1.10
2019-01-25T14:24:23.955Z,-1.10
2019-01-25T14:26:51.876Z,-1.10
2019-01-25T14:29:19.919Z,-1.10
2019-01-25T14:31:48.082Z,-1.10
2019-01-25T14:34:16.036Z,-1.20
2019-01-25T14:36:44.026Z,-1.20
2019-01-25T14:39:11.955Z,-1.20
2019-01-25T14:41:39.923Z,-1.20
2019-01-25T14:44:07.958Z,-1.30
2019-01-25T14:46:35.989Z,-1.40
2019-01-25T14:49:04.091Z,-1.40
2019-01-25T14:51:32.174Z,-1.50
2019-01-25T14:54:00.233Z,-1.40
2019-01-25T14:56:28.186Z,-1.50
2019-01-25T14:58:56.296Z,-1.40
2019-01-25T15:01:24.199Z,-1.50
2019-01-25T15:03:52.171Z,-1.50
2019-01-25T15:06:20.126Z,-1.50
2019-01-25T15:08:48.164Z,-1.50
2019-01-25T15:11:16.222Z,-1.40
2019-01-25T15:13:44.182Z,-1.40
2019-01-25T15:16:12.167Z,-1.40
2019-01-25T15:18:40.095Z,-1.40
2019-01-25T15:21:08.012Z,-1.40
2019-01-25T15:23:35.932Z,-1.30
2019-01-25T15:26:04.335Z,-1.40
2019-01-25T15:28:32.502Z,-1.40
2019-01-25T15:31:00.502Z,-1.40
2019-01-25T15:33:28.543Z,-1.40
2019-01-25T15:35:56.458Z,-1.50
2019-01-25T15:38:25.672Z,-1.50
2019-01-25T15:40:53.739Z,-1.50
2019-01-25T15:43:21.659Z,-1.50
2019-01-25T15:45:49.653Z,-1.40
2019-01-25T15:48:17.646Z,-1.40
2019-01-25T15:50:45.626Z,-1.40
2019-01-25T15:53:13.503Z,-1.40
2019-01-25T15:55:41.515Z,-1.40
2019-01-25T15:58:09.633Z,-1.30
2019-01-25T16:00:37.596Z,-1.40
2019-01-25T16:03:06.044Z,-1.40
2019-01-25T16:05:34.070Z,-1.40
2019-01-25T16:08:02.034Z,-1.40
2019-01-25T16:10:30.147Z,-1.40
2019-01-25T16:12:58.125Z,-1.40
2019-01-25T16:15:28.178Z,-1.40
2019-01-25T16:17:56.556Z,-1.30
2019-01-25T16:20:24.531Z,-1.20
2019-01-25T16:22:52.802Z,-1.30
2019-01-25T16:25:22.506Z,-1.30
2019-01-25T16:27:50.564Z,-1.30
2019-01-25T16:30:20.365Z,-1.40
2019-01-25T16:32:48.353Z,-1.40
2019-01-25T16:35:16.662Z,-1.40
2019-01-25T16:37:44.752Z,-1.40
2019-01-25T16:40:15.679Z,-1.30
2019-01-25T16:42:43.820Z,-1.20
2019-01-25T16:45:13.796Z,-1.20
2019-01-25T16:47:41.764Z,-1.30
2019-01-25T16:50:11.233Z,-1.30
2019-01-25T16:52:42.214Z,-1.40
2019-01-25T16:55:11.065Z,-1.40
2019-01-25T16:57:39.175Z,-1.20
2019-01-25T17:00:11.158Z,-1.20
2019-01-25T17:02:39.118Z,-1.10
2019-01-25T17:05:07.502Z,-1.10
2019-01-25T17:07:35.534Z,-1.20
2019-01-25T17:10:04.233Z,-1.20
2019-01-25T17:12:32.291Z,-1.20
2019-01-25T17:15:00.414Z,-1.30
2019-01-25T17:17:28.396Z,-1.20
2019-01-25T17:19:56.409Z,-1.10
2019-01-25T17:22:24.356Z,-1.10
2019-01-25T17:24:52.252Z,-1.20
2019-01-25T17:27:20.147Z,-1.20
2019-01-25T17:29:48.350Z,-1.20
2019-01-25T17:32:16.356Z,-1.10
2019-01-25T17:34:44.252Z,-1.10
2019-01-25T17:37:12.292Z,-1.20
2019-01-25T17:39:40.171Z,-1.10
2019-01-25T17:42:08.173Z,-1.00
2019-01-25T17:44:41.310Z,-1.20
2019-01-25T17:47:05.741Z,-1.20
2019-01-25T17:49:33.725Z,-1.10
2019-01-25T17:52:01.905Z,-1.10
2019-01-25T17:54:29.891Z,-1.00
2019-01-25T17:56:57.936Z,-1.10
2019-01-25T17:59:35.003Z,-1.00
2019-01-25T18:02:03.034Z,-1.00
2019-01-25T18:04:30.987Z,-1.00
2019-01-25T18:06:58.985Z,-1.00
2019-01-25T18:09:26.882Z,-0.90
2019-01-25T18:11:54.932Z,-0.90
2019-01-25T18:14:22.956Z,-0.90
2019-01-25T18:16:50.966Z,-0.80
2019-01-25T18:19:19.026Z,-0.80
2019-01-25T18:21:47.042Z,-0.80
2019-01-25T18:24:16.147Z,-0.70
2019-01-25T18:26:44.226Z,-0.70
2019-01-25T18:29:14.415Z,-0.70
2019-01-25T18:31:42.438Z,-0.70
2019-01-25T18:34:10.597Z,-0.80
2019-01-25T18:36:38.591Z,-0.80
2019-01-25T18:39:08.105Z,-0.90
2019-01-25T18:41:36.175Z,-0.90
2019-01-25T18:44:04.212Z,-0.90
2019-01-25T18:46:32.147Z,-0.90
2019-01-25T18:49:01.260Z,-0.90
2019-01-25T18:51:29.175Z,-0.80
2019-01-25T18:53:57.205Z,-0.80
2019-01-25T18:56:25.850Z,-0.90
2019-01-25T18:58:55.027Z,-1.00
2019-01-25T19:01:23.080Z,-0.90
2019-01-25T19:03:51.045Z,-0.90
2019-01-25T19:06:19.051Z,-0.80
2019-01-25T19:08:46.994Z,-0.90
2019-01-25T19:11:15.125Z,-1.00
2019-01-25T19:13:43.178Z,-0.90
2019-01-25T19:16:11.218Z,-0.90
2019-01-25T19:18:39.194Z,-1.00
2019-01-25T19:21:07.116Z,-1.00
2019-01-25T19:23:35.189Z,-1.00
2019-01-25T19:26:03.261Z,-1.00
2019-01-25T19:28:31.186Z,-1.00
2019-01-25T19:30:59.280Z,-1.00
2019-01-25T19:33:27.394Z,-0.90
2019-01-25T19:35:55.590Z,-0.80
2019-01-25T19:38:23.707Z,-0.90
2019-01-25T19:40:51.820Z,-0.90
2019-01-25T19:43:20.029Z,-1.00
2019-01-25T19:45:50.522Z,-1.10
2019-01-25T19:48:18.625Z,-1.00
2019-01-25T19:50:46.889Z,-1.10
2019-01-25T19:53:15.025Z,-1.10
2019-01-25T19:55:43.041Z,-1.30
2019-01-25T19:58:12.679Z,-1.30
2019-01-25T20:00:41.269Z,-1.30
2019-01-25T20:03:09.490Z,-1.30
2019-01-25T20:05:38.216Z,-1.20
2019-01-25T20:08:06.566Z,-1.30
2019-01-25T20:10:34.556Z,-1.20
2019-01-25T20:13:03.973Z,-1.30
2019-01-25T20:15:31.949Z,-1.30
2019-01-25T20:18:00.002Z,-1.30
2019-01-25T20:20:29.369Z,-1.40
2019-01-25T20:22:57.528Z,-1.40
2019-01-25T20:25:25.582Z,-1.40
2019-01-25T20:27:56.939Z,-1.50
2019-01-25T20:30:26.310Z,-1.50
2019-01-25T20:32:54.474Z,-1.50
2019-01-25T20:35:24.028Z,-1.50
2019-01-25T20:37:58.883Z,-1.40
2019-01-25T20:40:29.621Z,-1.50
2019-01-25T20:42:59.107Z,-1.50
2019-01-25T20:45:31.105Z,-1.60
2019-01-25T20:48:04.972Z,-1.60
2019-01-25T20:50:33.727Z,-1.70
2019-01-25T20:53:01.905Z,-1.70
2019-01-25T20:55:29.947Z,-1.60
2019-01-25T20:57:58.741Z,-1.60
2019-01-25T21:00:28.314Z,-1.50
2019-01-25T21:03:32.271Z,-1.60
2019-01-25T21:05:40.676Z,-1.70
2019-01-25T21:08:08.953Z,-1.70
2019-01-25T21:10:46.881Z,-1.60
2019-01-25T21:13:15.331Z,-1.70
2019-01-25T21:15:43.404Z,-1.70
2019-01-25T21:18:11.537Z,-1.70
2019-01-25T21:20:58.879Z,-1.70
2019-01-25T21:23:45.825Z,-1.80
2019-01-25T21:26:24.594Z,-1.70
2019-01-25T21:28:55.202Z,-1.70
2019-01-25T21:31:26.714Z,-1.70
2019-01-25T21:33:55.102Z,-1.70
2019-01-25T21:36:23.382Z,-1.80
2019-01-25T21:38:51.721Z,-1.70
2019-01-25T21:41:21.711Z,-1.70
2019-01-25T21:43:49.801Z,-1.80
2019-01-25T21:46:44.623Z,-1.80
2019-01-25T21:49:12.998Z,-1.80
2019-01-25T21:51:41.163Z,-1.70
2019-01-25T21:54:09.149Z,-1.70
2019-01-25T21:56:37.169Z,-1.60
2019-01-25T21:59:05.086Z,-1.50
2019-01-25T22:01:33.275Z,-1.50
2019-01-25T22:04:01.295Z,-1.50
2019-01-25T22:06:32.760Z,-1.50
2019-01-25T22:09:06.964Z,-1.60
2019-01-25T22:11:30.525Z,-1.60
2019-01-25T22:13:59.075Z,-1.60
2019-01-25T22:16:32.773Z,-1.50
2019-01-25T22:19:04.189Z,-1.60
2019-01-25T22:21:33.901Z,-1.60
2019-01-25T22:24:02.010Z,-1.60
2019-01-25T22:26:31.641Z,-1.50
2019-01-25T22:28:59.860Z,-1.50
2019-01-25T22:31:27.844Z,-1.50
2019-01-25T22:33:55.984Z,-1.40
2019-01-25T22:36:24.066Z,-1.30
2019-01-25T22:38:52.035Z,-1.30
2019-01-25T22:41:20.133Z,-1.20
2019-01-25T22:43:48.327Z,-1.20
2019-01-25T22:46:20.133Z,-1.10
2019-01-25T22:48:48.229Z,-1.10
2019-01-25T22:51:16.386Z,-1.10
2019-01-25T22:53:44.387Z,-1.10
2019-01-25T22:56:13.842Z,-1.10
2019-01-25T22:58:47.437Z,-1.20
2019-01-25T23:01:23.321Z,-1.20
2019-01-25T23:04:27.804Z,-1.10
2019-01-25T23:07:00.133Z,-1.10
2019-01-25T23:09:32.870Z,-1.10
2019-01-25T23:12:05.408Z,-1.00
2019-01-25T23:14:33.754Z,-1.00
2019-01-25T23:17:23.177Z,-1.00
2019-01-25T23:19:51.188Z,-0.80
2019-01-25T23:22:19.138Z,-0.90
2019-01-25T23:25:02.267Z,-1.00
2019-01-25T23:27:17.811Z,-1.00
2019-01-25T23:29:45.875Z,-0.90
2019-01-25T23:32:14.841Z,-0.90
2019-01-25T23:34:43.182Z,-0.90
2019-01-25T23:37:11.228Z,-1.00
2019-01-25T23:39:39.305Z,-0.90
2019-01-25T23:42:07.709Z,-0.90
2019-01-25T23:44:42.117Z,-1.00
2019-01-25T23:47:10.123Z,-1.00
2019-01-25T23:49:38.411Z,-1.10
2019-01-25T23:52:06.363Z,-1.10
2019-01-25T23:54:34.495Z,-1.10
2019-01-25T23:57:02.514Z,-1.10
2019-01-25T23:59:30.594Z,-1.10
